sensor_id;sensor_type;location;lat;lon;timestamp;pressure;altitude;pressure_sealevel;temperature;humidity
15193;BME280;7697;51.630;7.484;2023-02-02T00:01:22;101186.25;;;6.72;100.00
15193;BME280;7697;51.630;7.484;2023-02-02T00:06:25;101181.81;;;6.73;100.00
15193;BME280;7697;51.630;7.484;2023-02-02T00:11:29;101184.47;;;6.73;100.00
15193;BME280;7697;51.630;7.484;2023-02-02T00:16:43;101177.38;;;6.73;100.00
15193;BME280;7697;51.630;7.484;2023-02-02T00:21:45;101187.91;;;6.73;100.00
15193;BME280;7697;51.630;7.484;2023-02-02T00:26:49;101181.66;;;6.74;100.00
15193;BME280;7697;51.630;7.484;2023-02-02T00:31:53;101180.00;;;6.73;100.00
15193;BME280;7697;51.630;7.484;2023-02-02T00:36:55;101181.00;;;6.72;100.00
15193;BME280;7697;51.630;7.484;2023-02-02T00:41:57;101177.38;;;6.73;100.00
15193;BME280;7697;51.630;7.484;2023-02-02T00:47:00;101182.16;;;6.70;100.00
15193;BME280;7697;51.630;7.484;2023-02-02T00:52:02;101186.09;;;6.74;100.00
15193;BME280;7697;51.630;7.484;2023-02-02T00:57:04;101191.06;;;6.77;100.00
15193;BME280;7697;51.630;7.484;2023-02-02T01:02:07;101193.69;;;6.77;100.00
15193;BME280;7697;51.630;7.484;2023-02-02T01:07:09;101192.88;;;6.76;100.00
15193;BME280;7697;51.630;7.484;2023-02-02T01:12:11;101191.88;;;6.77;100.00
15193;BME280;7697;51.630;7.484;2023-02-02T01:17:14;101195.34;;;6.78;100.00
15193;BME280;7697;51.630;7.484;2023-02-02T01:22:16;101190.25;;;6.76;100.00
15193;BME280;7697;51.630;7.484;2023-02-02T01:27:17;101180.38;;;6.78;100.00
15193;BME280;7697;51.630;7.484;2023-02-02T01:32:27;101196.31;;;6.77;100.00
15193;BME280;7697;51.630;7.484;2023-02-02T01:37:28;101201.44;;;6.78;100.00
15193;BME280;7697;51.630;7.484;2023-02-02T01:42:30;101217.03;;;6.80;100.00
15193;BME280;7697;51.630;7.484;2023-02-02T01:47:36;101215.44;;;6.79;100.00
15193;BME280;7697;51.630;7.484;2023-02-02T01:52:40;101213.41;;;6.73;100.00
15193;BME280;7697;51.630;7.484;2023-02-02T01:57:45;101229.56;;;6.78;100.00
15193;BME280;7697;51.630;7.484;2023-02-02T02:02:52;101231.88;;;6.81;100.00
15193;BME280;7697;51.630;7.484;2023-02-02T02:08:00;101210.31;;;6.77;100.00
15193;BME280;7697;51.630;7.484;2023-02-02T02:13:03;101218.53;;;6.83;100.00
15193;BME280;7697;51.630;7.484;2023-02-02T02:18:17;101208.84;;;6.83;100.00
15193;BME280;7697;51.630;7.484;2023-02-02T02:23:49;101217.59;;;6.92;100.00
15193;BME280;7697;51.630;7.484;2023-02-02T02:29:31;101221.06;;;7.00;100.00
15193;BME280;7697;51.630;7.484;2023-02-02T02:34:48;101217.16;;;7.04;100.00
15193;BME280;7697;51.630;7.484;2023-02-02T02:39:55;101211.91;;;7.12;100.00
15193;BME280;7697;51.630;7.484;2023-02-02T02:45:00;101210.44;;;7.18;100.00
15193;BME280;7697;51.630;7.484;2023-02-02T02:50:05;101209.13;;;7.22;100.00
15193;BME280;7697;51.630;7.484;2023-02-02T02:55:09;101208.47;;;7.28;100.00
15193;BME280;7697;51.630;7.484;2023-02-02T03:05:46;101220.84;;;7.36;100.00
15193;BME280;7697;51.630;7.484;2023-02-02T03:10:51;101219.69;;;7.38;100.00
15193;BME280;7697;51.630;7.484;2023-02-02T03:15:56;101217.72;;;7.40;100.00
15193;BME280;7697;51.630;7.484;2023-02-02T03:20:59;101210.81;;;7.39;100.00
15193;BME280;7697;51.630;7.484;2023-02-02T03:26:01;101213.13;;;7.42;100.00
15193;BME280;7697;51.630;7.484;2023-02-02T03:31:02;101205.53;;;7.47;100.00
15193;BME280;7697;51.630;7.484;2023-02-02T03:36:07;101211.63;;;7.48;100.00
15193;BME280;7697;51.630;7.484;2023-02-02T03:41:12;101214.28;;;7.48;100.00
15193;BME280;7697;51.630;7.484;2023-02-02T03:46:14;101202.59;;;7.42;100.00
15193;BME280;7697;51.630;7.484;2023-02-02T03:51:17;101201.41;;;7.45;100.00
15193;BME280;7697;51.630;7.484;2023-02-02T03:56:19;101208.50;;;7.44;100.00
15193;BME280;7697;51.630;7.484;2023-02-02T04:01:25;101208.50;;;7.44;100.00
15193;BME280;7697;51.630;7.484;2023-02-02T04:06:29;101208.00;;;7.41;100.00
15193;BME280;7697;51.630;7.484;2023-02-02T04:11:31;101210.50;;;7.42;100.00
15193;BME280;7697;51.630;7.484;2023-02-02T04:16:33;101209.31;;;7.37;100.00
15193;BME280;7697;51.630;7.484;2023-02-02T04:21:38;101208.84;;;7.33;100.00
15193;BME280;7697;51.630;7.484;2023-02-02T04:26:40;101220.69;;;7.37;100.00
15193;BME280;7697;51.630;7.484;2023-02-02T04:31:42;101228.25;;;7.32;100.00
15193;BME280;7697;51.630;7.484;2023-02-02T04:36:45;101228.25;;;7.32;100.00
15193;BME280;7697;51.630;7.484;2023-02-02T04:41:47;101223.44;;;7.28;100.00
15193;BME280;7697;51.630;7.484;2023-02-02T04:46:48;101218.69;;;7.31;100.00
15193;BME280;7697;51.630;7.484;2023-02-02T04:51:52;101211.94;;;7.29;100.00
15193;BME280;7697;51.630;7.484;2023-02-02T04:56:53;101217.03;;;7.30;100.00
15193;BME280;7697;51.630;7.484;2023-02-02T05:01:57;101223.97;;;7.31;100.00
15193;BME280;7697;51.630;7.484;2023-02-02T05:07:00;101214.56;;;7.29;100.00
15193;BME280;7697;51.630;7.484;2023-02-02T05:12:03;101220.00;;;7.35;100.00
15193;BME280;7697;51.630;7.484;2023-02-02T05:17:04;101221.66;;;7.36;100.00
15193;BME280;7697;51.630;7.484;2023-02-02T05:22:10;101216.56;;;7.43;100.00
15193;BME280;7697;51.630;7.484;2023-02-02T05:27:13;101212.09;;;7.43;100.00
15193;BME280;7697;51.630;7.484;2023-02-02T05:32:14;101216.91;;;7.48;100.00
15193;BME280;7697;51.630;7.484;2023-02-02T05:37:18;101216.91;;;7.56;100.00
15193;BME280;7697;51.630;7.484;2023-02-02T05:42:19;101211.97;;;7.61;100.00
15193;BME280;7697;51.630;7.484;2023-02-02T05:47:21;101196.97;;;7.62;100.00
15193;BME280;7697;51.630;7.484;2023-02-02T05:52:30;101212.00;;;7.69;100.00
15193;BME280;7697;51.630;7.484;2023-02-02T05:57:35;101216.75;;;7.74;100.00
15193;BME280;7697;51.630;7.484;2023-02-02T06:02:36;101215.44;;;7.78;100.00
15193;BME280;7697;51.630;7.484;2023-02-02T06:07:39;101216.28;;;7.78;100.00
15193;BME280;7697;51.630;7.484;2023-02-02T06:12:41;101222.34;;;7.79;100.00
15193;BME280;7697;51.630;7.484;2023-02-02T06:17:43;101228.94;;;7.83;100.00
15193;BME280;7697;51.630;7.484;2023-02-02T06:22:46;101232.56;;;7.82;100.00
15193;BME280;7697;51.630;7.484;2023-02-02T06:27:54;101226.97;;;7.85;100.00
15193;BME280;7697;51.630;7.484;2023-02-02T06:32:58;101234.22;;;7.83;100.00
15193;BME280;7697;51.630;7.484;2023-02-02T06:38:01;101248.75;;;7.87;100.00
15193;BME280;7697;51.630;7.484;2023-02-02T06:43:03;101245.28;;;7.86;100.00
15193;BME280;7697;51.630;7.484;2023-02-02T06:48:05;101257.28;;;7.89;100.00
15193;BME280;7697;51.630;7.484;2023-02-02T06:53:23;101247.72;;;7.88;100.00
15193;BME280;7697;51.630;7.484;2023-02-02T06:58:26;101259.91;;;7.89;100.00
15193;BME280;7697;51.630;7.484;2023-02-02T07:03:28;101259.91;;;7.89;100.00
15193;BME280;7697;51.630;7.484;2023-02-02T07:08:32;101259.59;;;7.92;100.00
15193;BME280;7697;51.630;7.484;2023-02-02T07:13:34;101260.91;;;7.88;100.00
15193;BME280;7697;51.630;7.484;2023-02-02T07:18:35;101265.53;;;7.94;100.00
15193;BME280;7697;51.630;7.484;2023-02-02T07:23:38;101267.34;;;7.94;100.00
15193;BME280;7697;51.630;7.484;2023-02-02T07:28:41;101268.19;;;7.94;100.00
15193;BME280;7697;51.630;7.484;2023-02-02T07:33:44;101271.28;;;7.89;100.00
15193;BME280;7697;51.630;7.484;2023-02-02T07:44:04;101279.03;;;7.99;100.00
15193;BME280;7697;51.630;7.484;2023-02-02T07:49:12;101282.66;;;7.98;100.00
15193;BME280;7697;51.630;7.484;2023-02-02T07:54:16;101292.91;;;8.01;100.00
15193;BME280;7697;51.630;7.484;2023-02-02T07:59:17;101298.00;;;8.03;100.00
15193;BME280;7697;51.630;7.484;2023-02-02T08:04:19;101298.00;;;8.03;100.00
15193;BME280;7697;51.630;7.484;2023-02-02T08:09:22;101292.91;;;8.01;100.00
15193;BME280;7697;51.630;7.484;2023-02-02T08:14:24;101305.09;;;8.10;100.00
15193;BME280;7697;51.630;7.484;2023-02-02T08:19:26;101296.53;;;8.08;100.00
15193;BME280;7697;51.630;7.484;2023-02-02T08:24:30;101306.75;;;8.11;100.00
15193;BME280;7697;51.630;7.484;2023-02-02T08:29:33;101307.75;;;8.10;100.00
15193;BME280;7697;51.630;7.484;2023-02-02T08:34:35;101313.84;;;8.11;100.00
15193;BME280;7697;51.630;7.484;2023-02-02T08:39:38;101323.56;;;8.18;100.00
15193;BME280;7697;51.630;7.484;2023-02-02T08:44:40;101326.72;;;8.14;100.00
15193;BME280;7697;51.630;7.484;2023-02-02T08:49:42;101340.06;;;8.12;100.00
15193;BME280;7697;51.630;7.484;2023-02-02T08:54:45;101342.34;;;8.15;100.00
15193;BME280;7697;51.630;7.484;2023-02-02T08:59:47;101347.16;;;8.20;100.00
15193;BME280;7697;51.630;7.484;2023-02-02T09:04:49;101355.38;;;8.25;100.00
15193;BME280;7697;51.630;7.484;2023-02-02T09:09:52;101369.75;;;8.31;100.00
15193;BME280;7697;51.630;7.484;2023-02-02T09:14:55;101370.91;;;8.28;100.00
15193;BME280;7697;51.630;7.484;2023-02-02T09:19:56;101376.72;;;8.32;100.00
15193;BME280;7697;51.630;7.484;2023-02-02T09:24:59;101385.28;;;8.34;100.00
15193;BME280;7697;51.630;7.484;2023-02-02T09:30:01;101380.16;;;8.32;100.00
15193;BME280;7697;51.630;7.484;2023-02-02T09:35:03;101404.09;;;8.39;100.00
15193;BME280;7697;51.630;7.484;2023-02-02T09:40:09;101400.47;;;8.40;100.00
15193;BME280;7697;51.630;7.484;2023-02-02T09:45:19;101399.28;;;8.42;100.00
15193;BME280;7697;51.630;7.484;2023-02-02T09:50:39;101417.13;;;8.48;100.00
15193;BME280;7697;51.630;7.484;2023-02-02T09:55:45;101424.88;;;8.50;100.00
15193;BME280;7697;51.630;7.484;2023-02-02T10:00:53;101439.41;;;8.54;100.00
15193;BME280;7697;51.630;7.484;2023-02-02T10:06:02;101435.78;;;8.55;100.00
15193;BME280;7697;51.630;7.484;2023-02-02T10:11:19;101439.41;;;8.54;100.00
15193;BME280;7697;51.630;7.484;2023-02-02T10:16:24;101459.38;;;8.56;100.00
15193;BME280;7697;51.630;7.484;2023-02-02T10:21:32;101455.22;;;8.54;100.00
15193;BME280;7697;51.630;7.484;2023-02-02T10:26:38;101460.50;;;8.54;100.00
15193;BME280;7697;51.630;7.484;2023-02-02T10:31:52;101470.09;;;8.55;100.00
15193;BME280;7697;51.630;7.484;2023-02-02T10:37:18;101460.81;;;8.51;100.00
15193;BME280;7697;51.630;7.484;2023-02-02T10:42:31;101474.69;;;8.53;100.00
15193;BME280;7697;51.630;7.484;2023-02-02T10:47:36;101474.22;;;8.57;100.00
15193;BME280;7697;51.630;7.484;2023-02-02T10:52:40;101480.97;;;8.60;100.00
15193;BME280;7697;51.630;7.484;2023-02-02T10:57:59;101485.41;;;8.59;100.00
15193;BME280;7697;51.630;7.484;2023-02-02T11:03:03;101494.34;;;8.58;100.00
15193;BME280;7697;51.630;7.484;2023-02-02T11:08:12;101490.22;;;8.56;100.00
15193;BME280;7697;51.630;7.484;2023-02-02T11:13:26;101497.97;;;8.57;100.00
15193;BME280;7697;51.630;7.484;2023-02-02T11:18:29;101495.97;;;8.59;100.00
15193;BME280;7697;51.630;7.484;2023-02-02T11:23:31;101500.13;;;8.62;100.00
15193;BME280;7697;51.630;7.484;2023-02-02T11:28:34;101496.19;;;8.66;100.00
15193;BME280;7697;51.630;7.484;2023-02-02T11:33:37;101494.53;;;8.65;100.00
15193;BME280;7697;51.630;7.484;2023-02-02T11:38:39;101494.53;;;8.65;100.00
15193;BME280;7697;51.630;7.484;2023-02-02T11:43:48;101490.53;;;8.69;100.00
15193;BME280;7697;51.630;7.484;2023-02-02T11:49:12;101494.00;;;8.70;100.00
15193;BME280;7697;51.630;7.484;2023-02-02T11:54:19;101495.66;;;8.71;100.00
15193;BME280;7697;51.630;7.484;2023-02-02T11:59:30;101499.66;;;8.75;100.00
15193;BME280;7697;51.630;7.484;2023-02-02T12:04:32;101498.81;;;8.74;100.00
15193;BME280;7697;51.630;7.484;2023-02-02T12:09:34;101500.78;;;8.72;100.00
15193;BME280;7697;51.630;7.484;2023-02-02T12:14:42;101511.69;;;8.77;100.00
15193;BME280;7697;51.630;7.484;2023-02-02T12:19:57;101516.47;;;8.74;100.00
15193;BME280;7697;51.630;7.484;2023-02-02T12:25:10;101514.16;;;8.71;100.00
15193;BME280;7697;51.630;7.484;2023-02-02T12:30:26;101513.66;;;8.67;100.00
15193;BME280;7697;51.630;7.484;2023-02-02T12:35:44;101510.69;;;8.70;100.00
15193;BME280;7697;51.630;7.484;2023-02-02T12:41:06;101502.59;;;8.63;100.00
15193;BME280;7697;51.630;7.484;2023-02-02T12:46:24;101515.81;;;8.72;100.00
15193;BME280;7697;51.630;7.484;2023-02-02T12:51:40;101509.22;;;8.68;100.00
15193;BME280;7697;51.630;7.484;2023-02-02T12:56:55;101500.28;;;8.69;100.00
15193;BME280;7697;51.630;7.484;2023-02-02T13:02:09;101504.09;;;8.74;100.00
15193;BME280;7697;51.630;7.484;2023-02-02T13:07:24;101507.41;;;8.76;100.00
15193;BME280;7697;51.630;7.484;2023-02-02T13:12:32;101486.91;;;8.70;100.00
15193;BME280;7697;51.630;7.484;2023-02-02T13:17:39;101504.94;;;8.75;100.00
15193;BME280;7697;51.630;7.484;2023-02-02T13:22:43;101506.75;;;8.74;100.00
15193;BME280;7697;51.630;7.484;2023-02-02T13:27:46;101508.72;;;8.72;100.00
15193;BME280;7697;51.630;7.484;2023-02-02T13:32:51;101516.63;;;8.72;100.00
15193;BME280;7697;51.630;7.484;2023-02-02T13:37:59;101524.88;;;8.77;100.00
15193;BME280;7697;51.630;7.484;2023-02-02T13:43:10;101525.72;;;8.78;100.00
15193;BME280;7697;51.630;7.484;2023-02-02T13:48:24;101529.53;;;8.83;100.00
15193;BME280;7697;51.630;7.484;2023-02-02T13:53:41;101526.72;;;8.85;100.00
15193;BME280;7697;51.630;7.484;2023-02-02T13:59:03;101533.81;;;8.84;100.00
15193;BME280;7697;51.630;7.484;2023-02-02T14:04:20;101521.75;;;8.82;100.00
15193;BME280;7697;51.630;7.484;2023-02-02T14:09:25;101519.94;;;8.82;100.00
15193;BME280;7697;51.630;7.484;2023-02-02T14:14:28;101528.53;;;8.84;100.00
15193;BME280;7697;51.630;7.484;2023-02-02T14:19:50;101542.56;;;8.85;100.00
15193;BME280;7697;51.630;7.484;2023-02-02T14:24:52;101543.22;;;8.87;100.00
15193;BME280;7697;51.630;7.484;2023-02-02T14:29:58;101545.03;;;8.86;100.00
15193;BME280;7697;51.630;7.484;2023-02-02T14:40:46;101544.38;;;8.84;100.00
15193;BME280;7697;51.630;7.484;2023-02-02T14:46:20;101552.63;;;8.81;100.00
15193;BME280;7697;51.630;7.484;2023-02-02T14:51:25;101564.34;;;8.87;100.00
15193;BME280;7697;51.630;7.484;2023-02-02T14:56:38;101577.91;;;8.84;100.00
15193;BME280;7697;51.630;7.484;2023-02-02T15:01:41;101583.81;;;8.78;100.00
15193;BME280;7697;51.630;7.484;2023-02-02T15:06:46;101576.56;;;8.80;100.00
15193;BME280;7697;51.630;7.484;2023-02-02T15:12:14;101582.66;;;8.80;100.00
15193;BME280;7697;51.630;7.484;2023-02-02T15:17:21;101596.53;;;8.82;100.00
15193;BME280;7697;51.630;7.484;2023-02-02T15:22:29;101577.53;;;8.79;100.00
15193;BME280;7697;51.630;7.484;2023-02-02T15:27:32;101577.06;;;8.75;100.00
15193;BME280;7697;51.630;7.484;2023-02-02T15:32:35;101583.66;;;8.79;100.00
15193;BME280;7697;51.630;7.484;2023-02-02T15:37:39;101584.31;;;8.73;100.00
15193;BME280;7697;51.630;7.484;2023-02-02T15:42:45;101597.19;;;8.76;100.00
15193;BME280;7697;51.630;7.484;2023-02-02T15:47:56;101597.19;;;8.76;100.00
15193;BME280;7697;51.630;7.484;2023-02-02T15:53:00;101616.84;;;8.82;100.00
15193;BME280;7697;51.630;7.484;2023-02-02T15:58:02;101615.19;;;8.81;100.00
15193;BME280;7697;51.630;7.484;2023-02-02T16:03:08;101620.63;;;8.79;100.00
15193;BME280;7697;51.630;7.484;2023-02-02T16:08:17;101626.91;;;8.78;100.00
15193;BME280;7697;51.630;7.484;2023-02-02T16:13:23;101620.78;;;8.78;100.00
15193;BME280;7697;51.630;7.484;2023-02-02T16:18:25;101632.84;;;8.80;100.00
15193;BME280;7697;51.630;7.484;2023-02-02T16:23:43;101624.09;;;8.80;100.00
15193;BME280;7697;51.630;7.484;2023-02-02T16:28:46;101624.25;;;8.78;100.00
15193;BME280;7697;51.630;7.484;2023-02-02T16:33:48;101624.25;;;8.78;100.00
15193;BME280;7697;51.630;7.484;2023-02-02T16:38:52;101625.56;;;8.74;100.00
15193;BME280;7697;51.630;7.484;2023-02-02T16:43:54;101628.72;;;8.78;100.00
15193;BME280;7697;51.630;7.484;2023-02-02T16:48:58;101627.41;;;8.74;100.00
15193;BME280;7697;51.630;7.484;2023-02-02T16:54:12;101644.75;;;8.76;100.00
15193;BME280;7697;51.630;7.484;2023-02-02T16:59:21;101658.41;;;8.72;100.00
15193;BME280;7697;51.630;7.484;2023-02-02T17:04:25;101662.41;;;8.76;100.00
15193;BME280;7697;51.630;7.484;2023-02-02T17:09:34;101667.00;;;8.74;100.00
15193;BME280;7697;51.630;7.484;2023-02-02T17:14:36;101665.88;;;8.76;100.00
15193;BME280;7697;51.630;7.484;2023-02-02T17:19:38;101672.97;;;8.76;100.00
15193;BME280;7697;51.630;7.484;2023-02-02T17:24:43;101675.59;;;8.76;100.00
15193;BME280;7697;51.630;7.484;2023-02-02T17:29:46;101676.91;;;8.72;100.00
15193;BME280;7697;51.630;7.484;2023-02-02T17:34:47;101685.66;;;8.72;100.00
15193;BME280;7697;51.630;7.484;2023-02-02T17:39:50;101679.38;;;8.73;100.00
15193;BME280;7697;51.630;7.484;2023-02-02T17:44:53;101694.91;;;8.76;100.00
15193;BME280;7697;51.630;7.484;2023-02-02T17:49:54;101688.81;;;8.76;100.00
15193;BME280;7697;51.630;7.484;2023-02-02T17:54:58;101689.16;;;8.81;100.00
15193;BME280;7697;51.630;7.484;2023-02-02T17:59:59;101685.81;;;8.79;100.00
15193;BME280;7697;51.630;7.484;2023-02-02T18:05:01;101682.34;;;8.78;100.00
15193;BME280;7697;51.630;7.484;2023-02-02T18:10:06;101688.97;;;8.74;100.00
15193;BME280;7697;51.630;7.484;2023-02-02T18:15:11;101689.63;;;8.76;100.00
15193;BME280;7697;51.630;7.484;2023-02-02T18:20:14;101676.25;;;8.78;100.00
15193;BME280;7697;51.630;7.484;2023-02-02T18:25:17;101679.06;;;8.76;100.00
15193;BME280;7697;51.630;7.484;2023-02-02T18:30:20;101679.38;;;8.73;100.00
15193;BME280;7697;51.630;7.484;2023-02-02T18:35:21;101677.56;;;8.74;100.00
15193;BME280;7697;51.630;7.484;2023-02-02T18:40:25;101681.34;;;8.71;100.00
15193;BME280;7697;51.630;7.484;2023-02-02T18:45:27;101672.28;;;8.74;100.00
15193;BME280;7697;51.630;7.484;2023-02-02T18:50:29;101660.91;;;8.73;100.00
15193;BME280;7697;51.630;7.484;2023-02-02T18:55:32;101667.69;;;8.76;100.00
15193;BME280;7697;51.630;7.484;2023-02-02T19:00:33;101663.88;;;8.78;100.00
15193;BME280;7697;51.630;7.484;2023-02-02T19:05:35;101656.59;;;8.72;100.00
15193;BME280;7697;51.630;7.484;2023-02-02T19:10:58;101669.50;;;8.75;100.00
15193;BME280;7697;51.630;7.484;2023-02-02T19:16:14;101673.59;;;8.78;100.00
15193;BME280;7697;51.630;7.484;2023-02-02T19:21:16;101675.41;;;8.77;100.00
15193;BME280;7697;51.630;7.484;2023-02-02T19:26:21;101674.13;;;8.81;100.00
15193;BME280;7697;51.630;7.484;2023-02-02T19:31:23;101690.28;;;8.78;100.00
15193;BME280;7697;51.630;7.484;2023-02-02T19:36:25;101684.00;;;8.79;100.00
15193;BME280;7697;51.630;7.484;2023-02-02T19:41:29;101688.84;;;8.84;100.00
15193;BME280;7697;51.630;7.484;2023-02-02T19:46:35;101678.88;;;8.78;100.00
15193;BME280;7697;51.630;7.484;2023-02-02T19:51:42;101692.63;;;8.81;100.00
15193;BME280;7697;51.630;7.484;2023-02-02T19:56:46;101689.00;;;8.82;100.00
15193;BME280;7697;51.630;7.484;2023-02-02T20:01:47;101699.06;;;8.87;100.00
15193;BME280;7697;51.630;7.484;2023-02-02T20:06:50;101687.84;;;8.85;100.00
15193;BME280;7697;51.630;7.484;2023-02-02T20:11:55;101685.84;;;8.87;100.00
15193;BME280;7697;51.630;7.484;2023-02-02T20:16:59;101680.75;;;8.85;100.00
15193;BME280;7697;51.630;7.484;2023-02-02T20:22:19;101682.38;;;8.86;100.00
15193;BME280;7697;51.630;7.484;2023-02-02T20:27:27;101676.63;;;8.91;100.00
15193;BME280;7697;51.630;7.484;2023-02-02T20:32:38;101686.69;;;8.95;100.00
15193;BME280;7697;51.630;7.484;2023-02-02T20:37:40;101675.97;;;8.89;100.00
15193;BME280;7697;51.630;7.484;2023-02-02T20:42:46;101677.47;;;8.91;100.00
15193;BME280;7697;51.630;7.484;2023-02-02T20:47:48;101679.44;;;8.97;100.00
15193;BME280;7697;51.630;7.484;2023-02-02T20:52:50;101673.19;;;8.98;100.00
15193;BME280;7697;51.630;7.484;2023-02-02T20:57:54;101666.91;;;8.99;100.00
15193;BME280;7697;51.630;7.484;2023-02-02T21:02:56;101685.25;;;9.01;100.00
15193;BME280;7697;51.630;7.484;2023-02-02T21:07:58;101682.44;;;9.02;100.00
15193;BME280;7697;51.630;7.484;2023-02-02T21:13:01;101688.56;;;9.03;100.00
15193;BME280;7697;51.630;7.484;2023-02-02T21:18:02;101702.59;;;9.03;100.00
15193;BME280;7697;51.630;7.484;2023-02-02T21:23:04;101710.53;;;9.03;100.00
15193;BME280;7697;51.630;7.484;2023-02-02T21:28:07;101730.50;;;9.06;100.00
15193;BME280;7697;51.630;7.484;2023-02-02T21:33:09;101725.06;;;9.08;100.00
15193;BME280;7697;51.630;7.484;2023-02-02T21:38:13;101710.69;;;9.10;100.00
15193;BME280;7697;51.630;7.484;2023-02-02T21:43:17;101716.81;;;9.11;100.00
15193;BME280;7697;51.630;7.484;2023-02-02T21:48:24;101718.97;;;9.15;100.00
15193;BME280;7697;51.630;7.484;2023-02-02T21:53:26;101710.56;;;9.20;100.00
15193;BME280;7697;51.630;7.484;2023-02-02T21:58:32;101685.28;;;9.17;100.00
15193;BME280;7697;51.630;7.484;2023-02-02T22:03:36;101691.06;;;9.21;100.00
15193;BME280;7697;51.630;7.484;2023-02-02T22:08:38;101691.25;;;9.19;100.00
15193;BME280;7697;51.630;7.484;2023-02-02T22:13:41;101680.50;;;9.21;100.00
15193;BME280;7697;51.630;7.484;2023-02-02T22:18:43;101678.50;;;9.23;100.00
15193;BME280;7697;51.630;7.484;2023-02-02T22:23:45;101675.22;;;9.21;100.00
15193;BME280;7697;51.630;7.484;2023-02-02T22:28:48;101692.38;;;9.25;100.00
15193;BME280;7697;51.630;7.484;2023-02-02T22:33:49;101702.81;;;9.26;100.00
15193;BME280;7697;51.630;7.484;2023-02-02T22:38:51;101690.72;;;9.24;100.00
15193;BME280;7697;51.630;7.484;2023-02-02T22:43:54;101680.84;;;9.26;100.00
15193;BME280;7697;51.630;7.484;2023-02-02T22:48:56;101672.06;;;9.25;100.00
15193;BME280;7697;51.630;7.484;2023-02-02T22:53:57;101688.75;;;9.26;100.00
15193;BME280;7697;51.630;7.484;2023-02-02T22:59:00;101684.81;;;9.30;100.00
15193;BME280;7697;51.630;7.484;2023-02-02T23:04:02;101682.19;;;9.30;100.00
15193;BME280;7697;51.630;7.484;2023-02-02T23:09:04;101685.97;;;9.27;100.00
15193;BME280;7697;51.630;7.484;2023-02-02T23:14:07;101684.97;;;9.28;100.00
15193;BME280;7697;51.630;7.484;2023-02-02T23:19:09;101659.84;;;9.24;100.00
15193;BME280;7697;51.630;7.484;2023-02-02T23:24:11;101672.75;;;9.27;100.00
15193;BME280;7697;51.630;7.484;2023-02-02T23:29:14;101668.28;;;9.28;100.00
15193;BME280;7697;51.630;7.484;2023-02-02T23:34:16;101656.38;;;9.32;100.00
15193;BME280;7697;51.630;7.484;2023-02-02T23:39:17;101638.06;;;9.30;100.00
15193;BME280;7697;51.630;7.484;2023-02-02T23:44:20;101638.84;;;9.31;100.00
15193;BME280;7697;51.630;7.484;2023-02-02T23:49:22;101620.72;;;9.36;100.00
15193;BME280;7697;51.630;7.484;2023-02-02T23:54:25;101619.88;;;9.35;100.00
15193;BME280;7697;51.630;7.484;2023-02-02T23:59:28;101599.25;;;9.39;100.00
